Time;durP1;ratioP1;P1;durP2;ratioP2;P2;SDS_P1;SDS_P2;PMS_P1;PMS_P2;Temp;Humidity;BMP_temperature;BMP_pressure;BME280_temperature;BME280_humidity;BME280_pressure;Samples;Min_cycle;Max_cycle;Signal;HPM_P1;HPM_P2
2022/11/27 00:01:14;;;;;;;12.35;9.18;;;;;;;16.37;61.90;100167.97;4992997;28;20376;-71
2022/11/27 00:03:40;;;;;;;12.20;9.38;;;;;;;16.39;61.81;100170.56;4992110;28;20035;-68
2022/11/27 00:06:07;;;;;;;12.23;9.20;;;;;;;16.37;61.93;100165.34;4991733;28;20027;-70
2022/11/27 00:08:32;;;;;;;11.48;9.13;;;;;;;16.34;61.62;100159.31;4992281;28;20023;-70
2022/11/27 00:11:09;;;;;;;11.63;8.80;;;;;;;16.38;61.42;100161.78;4991444;28;20541;-69
2022/11/27 00:13:35;;;;;;;10.15;8.55;;;;;;;16.36;61.22;100166.25;4990363;28;20173;-69
2022/11/27 00:16:02;;;;;;;10.73;8.68;;;;;;;16.36;61.53;100170.66;4991754;28;20105;-69
2022/11/27 00:18:27;;;;;;;10.50;8.02;;;;;;;16.29;61.39;100169.97;4989225;28;20023;-68
2022/11/27 00:20:53;;;;;;;11.32;8.32;;;;;;;16.31;61.32;100169.91;4991931;28;20367;-67
2022/11/27 00:23:18;;;;;;;11.73;8.13;;;;;;;16.25;61.19;100157.81;4991286;28;20101;-68
2022/11/27 00:25:51;;;;;;;10.68;8.57;;;;;;;16.25;61.01;100160.44;4993248;28;20038;-68
2022/11/27 00:28:18;;;;;;;10.88;7.68;;;;;;;16.23;61.34;100160.47;4995827;28;20026;-69
2022/11/27 00:30:44;;;;;;;11.77;7.90;;;;;;;16.23;61.06;100164.91;4995514;28;20497;-70
2022/11/27 00:33:09;;;;;;;9.68;7.53;;;;;;;16.25;61.42;100168.34;4995577;28;20027;-68
2022/11/27 00:35:34;;;;;;;10.40;7.95;;;;;;;16.26;60.98;100158.69;4995439;28;20025;-68
2022/11/27 00:38:01;;;;;;;9.50;7.50;;;;;;;16.23;61.05;100165.75;4995577;28;20046;-69
2022/11/27 00:40:27;;;;;;;11.73;7.47;;;;;;;16.19;60.92;100158.00;4992848;28;20026;-68
2022/11/27 00:42:52;;;;;;;12.05;7.78;;;;;;;16.21;60.84;100157.03;4995349;28;20092;-70
2022/11/27 00:45:18;;;;;;;9.80;7.30;;;;;;;16.17;61.15;100155.41;4995199;28;20030;-68
2022/11/27 00:47:43;;;;;;;9.57;7.20;;;;;;;16.18;60.71;100156.28;4995287;28;20441;-69
2022/11/27 00:50:09;;;;;;;9.45;7.45;;;;;;;16.15;60.88;100145.81;4995358;28;20058;-70
2022/11/27 00:52:34;;;;;;;9.35;7.20;;;;;;;16.16;60.81;100144.91;4994868;28;20053;-69
2022/11/27 00:54:59;;;;;;;8.25;6.78;;;;;;;16.14;60.96;100144.97;4995204;28;20208;-70
2022/11/27 00:57:25;;;;;;;10.75;7.50;;;;;;;16.15;60.46;100140.56;4995406;28;20029;-67
2022/11/27 00:59:50;;;;;;;10.02;7.15;;;;;;;16.18;60.67;100140.47;4996365;28;20037;-68
2022/11/27 01:02:15;;;;;;;8.20;6.75;;;;;;;16.17;60.87;100144.03;4996225;28;20026;-69
2022/11/27 01:04:44;;;;;;;7.90;6.47;;;;;;;16.17;61.02;100146.66;4996500;28;20410;-68
2022/11/27 01:07:10;;;;;;;8.88;6.40;;;;;;;16.14;60.97;100144.09;4996146;28;20030;-69
2022/11/27 01:09:35;;;;;;;9.70;6.35;;;;;;;16.15;60.89;100145.81;4996240;28;20098;-69
2022/11/27 01:12:01;;;;;;;11.80;6.75;;;;;;;16.13;60.73;100143.22;4996346;28;20027;-70
2022/11/27 01:14:26;;;;;;;9.70;7.07;;;;;;;16.15;60.82;100140.56;4994893;28;20398;-68
2022/11/27 01:16:51;;;;;;;8.32;6.75;;;;;;;16.13;61.09;100153.75;4996059;28;20034;-68
2022/11/27 01:19:18;;;;;;;9.05;6.85;;;;;;;16.15;60.97;100148.44;4995942;28;20025;-67
2022/11/27 01:21:43;;;;;;;9.25;6.55;;;;;;;16.12;61.07;100148.56;4995786;28;20018;-69
2022/11/27 01:24:11;;;;;;;8.20;6.18;;;;;;;16.18;60.67;100140.47;4995790;28;20053;-70
2022/11/27 01:26:37;;;;;;;8.27;5.68;;;;;;;16.14;60.51;100141.47;4995787;28;20467;-69
2022/11/27 01:29:02;;;;;;;7.80;5.75;;;;;;;16.15;60.65;100145.81;4995904;28;20060;-67
2022/11/27 01:31:31;;;;;;;8.30;6.18;;;;;;;16.13;60.26;100148.50;4995172;28;20105;-71
2022/11/27 01:33:59;;;;;;;8.40;5.90;;;;;;;16.13;60.46;100152.91;4994696;28;20026;-69
2022/11/27 01:36:25;;;;;;;6.53;4.68;;;;;;;16.10;60.76;100154.75;4994937;28;20038;-70
2022/11/27 01:38:51;;;;;;;9.25;5.85;;;;;;;16.08;60.63;100146.00;4995764;28;20031;-71
2022/11/27 01:41:16;;;;;;;8.57;6.18;;;;;;;16.10;60.53;100133.69;4995710;28;20426;-70
2022/11/27 01:43:49;;;;;;;7.28;5.53;;;;;;;16.14;60.69;100141.47;4995558;28;20030;-70
2022/11/27 01:46:42;;;;;;;7.80;5.43;;;;;;;16.07;60.70;100139.00;4995427;28;20034;-70
2022/11/27 01:49:07;;;;;;;9.95;5.75;;;;;;;16.05;60.69;100137.34;4995649;28;20027;-70
2022/11/27 01:51:33;;;;;;;7.88;4.82;;;;;;;16.08;60.66;100140.75;4995256;28;20372;-70
2022/11/27 01:53:59;;;;;;;7.70;5.45;;;;;;;16.08;60.43;100140.75;4995637;28;20034;-70
2022/11/27 01:56:26;;;;;;;6.75;4.90;;;;;;;16.06;60.72;100136.41;4994422;28;20038;-71
2022/11/27 01:58:52;;;;;;;6.40;5.10;;;;;;;16.05;60.64;100130.31;4995413;28;20388;-70
2022/11/27 02:01:17;;;;;;;6.95;4.85;;;;;;;16.06;60.55;100131.16;4995376;28;20106;-70
2022/11/27 02:03:43;;;;;;;6.72;4.88;;;;;;;16.10;60.53;100138.94;4995251;28;20459;-69
2022/11/27 02:06:12;;;;;;;6.93;4.85;;;;;;;16.08;60.62;100135.47;4994949;28;20383;-69
2022/11/27 02:08:38;;;;;;;6.25;4.63;;;;;;;16.06;60.60;100126.75;4994572;28;20073;-70
2022/11/27 02:11:28;;;;;;;6.63;5.10;;;;;;;16.06;60.18;100129.41;4995165;28;20034;-70
2022/11/27 02:13:58;;;;;;;7.18;4.85;;;;;;;16.04;60.54;100132.97;4994654;28;20034;-70
2022/11/27 02:16:30;;;;;;;6.97;4.82;;;;;;;16.04;60.37;100132.97;4995101;28;20034;-70
2022/11/27 02:19:15;;;;;;;6.38;4.40;;;;;;;16.04;60.29;100132.97;4994547;28;20038;-70
2022/11/27 02:21:50;;;;;;;6.68;4.70;;;;;;;16.05;60.12;100132.94;4995012;28;20129;-71
2022/11/27 02:25:10;;;;;;;6.90;4.47;;;;;;;16.05;60.28;100130.31;4994833;28;20042;-70
2022/11/27 02:27:47;;;;;;;6.25;4.95;;;;;;;16.02;60.34;100129.53;4934644;29;20027;-70
2022/11/27 02:30:13;;;;;;;7.05;4.50;;;;;;;16.03;60.26;100128.63;4934732;29;20095;-69
2022/11/27 02:33:01;;;;;;;6.05;4.10;;;;;;;16.02;60.42;100125.13;4918914;29;20452;-70
2022/11/27 02:35:43;;;;;;;7.18;4.85;;;;;;;16.03;60.34;100132.09;4934162;29;20040;-70
2022/11/27 02:38:21;;;;;;;6.82;4.40;;;;;;;16.01;60.44;100118.13;4934756;29;20146;-71
2022/11/27 02:40:56;;;;;;;7.45;4.68;;;;;;;16.01;60.25;100120.78;4934749;29;20425;-70
2022/11/27 02:43:33;;;;;;;6.10;4.40;;;;;;;15.99;60.41;100125.22;4934479;29;20043;-70
2022/11/27 02:46:01;;;;;;;7.13;4.75;;;;;;;15.97;60.31;100127.91;4934376;29;20488;-70
2022/11/27 02:48:33;;;;;;;5.90;4.10;;;;;;;16.00;60.44;100126.94;4933527;29;20126;-70
2022/11/27 02:50:59;;;;;;;5.97;4.03;;;;;;;16.01;60.22;100128.66;4934459;29;20035;-70
2022/11/27 02:53:30;;;;;;;6.65;4.35;;;;;;;16.04;60.22;100123.28;4934432;29;20124;-70
2022/11/27 02:55:58;;;;;;;5.43;3.85;;;;;;;16.01;60.35;100128.66;4934179;29;20114;-70
2022/11/27 02:58:26;;;;;;;5.82;3.70;;;;;;;16.02;60.37;100124.28;4934386;29;20024;-69
2022/11/27 03:00:53;;;;;;;6.18;4.10;;;;;;;15.99;60.11;100114.69;4947170;28;20042;-70
2022/11/27 03:03:25;;;;;;;7.18;4.32;;;;;;;16.00;60.12;100115.53;4993813;28;20093;-70
2022/11/27 03:05:55;;;;;;;6.07;3.92;;;;;;;16.02;59.83;100119.84;4993977;28;20089;-70
2022/11/27 03:08:32;;;;;;;6.78;4.20;;;;;;;16.04;60.06;100104.88;4993872;28;20110;-69
2022/11/27 03:11:05;;;;;;;7.35;4.13;;;;;;;16.02;59.98;100104.06;4993948;28;20057;-69
2022/11/27 03:13:36;;;;;;;6.57;3.95;;;;;;;16.01;59.86;100097.06;4994041;28;20037;-70
2022/11/27 03:16:34;;;;;;;6.22;4.20;;;;;;;15.95;59.74;100098.13;4993854;28;20030;-70
2022/11/27 03:19:21;;;;;;;5.43;4.13;;;;;;;15.96;60.08;100096.34;4933850;29;20114;-70
2022/11/27 03:21:55;;;;;;;7.53;4.38;;;;;;;15.93;59.85;100089.41;4933919;29;20028;-69
2022/11/27 03:24:21;;;;;;;6.15;4.05;;;;;;;15.95;59.99;100086.72;4933566;29;20060;-70
2022/11/27 03:26:47;;;;;;;6.70;4.50;;;;;;;15.94;59.85;100075.34;4917863;29;20086;-68
2022/11/27 03:29:34;;;;;;;7.00;4.57;;;;;;;15.93;59.84;100073.63;4933802;29;20048;-70
2022/11/27 03:32:00;;;;;;;6.40;4.22;;;;;;;15.92;59.86;100076.25;4933440;29;20111;-69
2022/11/27 03:34:27;;;;;;;6.15;4.13;;;;;;;15.96;59.60;100064.75;4933650;29;20032;-69
2022/11/27 03:36:53;;;;;;;5.68;3.88;;;;;;;15.95;59.90;100065.69;4933614;29;20048;-69
2022/11/27 03:39:20;;;;;;;5.38;3.97;;;;;;;15.92;59.58;100066.63;4933768;29;20046;-69
2022/11/27 03:42:06;;;;;;;6.07;3.90;;;;;;;15.91;59.68;100064.00;4933626;29;20506;-70
2022/11/27 03:45:20;;;;;;;6.38;3.60;;;;;;;15.90;59.61;100065.78;4917344;29;20449;-70
2022/11/27 03:48:16;;;;;;;6.55;4.07;;;;;;;15.92;59.94;100069.25;4931275;29;20080;-70
2022/11/27 03:50:59;;;;;;;5.20;3.70;;;;;;;15.91;59.76;100061.38;4917620;29;20500;-70
2022/11/27 03:53:53;;;;;;;5.78;4.03;;;;;;;15.88;59.82;100059.69;4933626;29;20023;-69
2022/11/27 03:56:46;;;;;;;6.07;3.97;;;;;;;15.87;59.96;100057.97;4962026;28;20047;-70
2022/11/27 03:59:24;;;;;;;6.18;3.70;;;;;;;15.92;60.00;100052.56;4966028;28;20039;-70
2022/11/27 04:01:49;;;;;;;6.25;3.92;;;;;;;15.90;60.16;100046.50;4973263;28;20038;-70
2022/11/27 04:04:15;;;;;;;6.28;3.92;;;;;;;15.93;60.17;100038.56;4973750;28;20038;-69
2022/11/27 04:06:43;;;;;;;5.70;3.83;;;;;;;15.91;59.85;100037.69;4973906;28;20034;-69
2022/11/27 04:09:08;;;;;;;5.38;3.97;;;;;;;15.93;60.15;100030.66;4973856;28;20038;-70
2022/11/27 04:11:34;;;;;;;5.47;3.55;;;;;;;15.93;59.96;100028.88;4973912;28;20100;-70
2022/11/27 04:13:59;;;;;;;5.60;3.60;;;;;;;15.91;60.41;100021.91;4973360;28;20023;-70
2022/11/27 04:16:25;;;;;;;6.10;4.05;;;;;;;15.95;60.30;100028.81;4973286;28;20436;-70
2022/11/27 04:18:50;;;;;;;5.38;3.60;;;;;;;15.96;60.26;100025.28;4972477;28;20038;-70
2022/11/27 04:21:16;;;;;;;6.10;3.67;;;;;;;15.96;60.11;100027.91;4973746;28;20038;-70
2022/11/27 04:23:42;;;;;;;4.82;3.40;;;;;;;15.96;60.17;100030.53;4973585;28;20078;-70
2022/11/27 04:26:07;;;;;;;5.57;3.55;;;;;;;15.95;60.11;100034.09;4973673;28;20031;-70
2022/11/27 04:28:33;;;;;;;5.22;3.30;;;;;;;15.90;59.98;100036.84;4991056;28;20502;-70
2022/11/27 04:30:58;;;;;;;5.63;3.63;;;;;;;15.94;60.23;100040.28;4991363;28;20034;-69
2022/11/27 04:33:24;;;;;;;5.65;3.67;;;;;;;15.92;59.66;100045.56;4993095;28;20041;-70
2022/11/27 04:35:50;;;;;;;5.18;3.00;;;;;;;15.94;60.02;100037.63;4992998;28;20036;-70
2022/11/27 04:38:15;;;;;;;5.22;2.95;;;;;;;15.96;60.14;100028.78;4993097;28;20031;-69
2022/11/27 04:40:41;;;;;;;5.32;3.10;;;;;;;15.97;60.41;100029.63;4993089;28;20077;-70
2022/11/27 04:43:06;;;;;;;5.90;3.50;;;;;;;15.93;60.31;100022.75;4992865;28;20084;-70
2022/11/27 04:45:32;;;;;;;4.93;3.10;;;;;;;15.98;59.99;100028.72;4992603;28;20038;-69
2022/11/27 04:47:57;;;;;;;5.10;3.50;;;;;;;16.02;60.29;100030.34;4992753;28;20034;-70
2022/11/27 04:50:23;;;;;;;4.35;3.00;;;;;;;15.97;60.31;100030.50;4992953;28;20031;-70
2022/11/27 04:52:48;;;;;;;5.38;3.47;;;;;;;15.96;60.18;100020.88;4992854;28;20022;-70
2022/11/27 04:55:14;;;;;;;4.30;2.90;;;;;;;15.98;60.23;100023.44;4992712;28;20030;-70
2022/11/27 04:57:39;;;;;;;5.15;2.90;;;;;;;15.94;59.91;100017.44;4992980;28;20548;-70
2022/11/27 05:00:06;;;;;;;5.07;3.15;;;;;;;15.92;59.86;100018.34;4992481;28;20543;-69
2022/11/27 05:02:31;;;;;;;5.13;3.15;;;;;;;15.93;59.89;100020.13;4992778;28;20034;-70
2022/11/27 05:04:56;;;;;;;5.13;3.20;;;;;;;15.92;59.72;100018.34;4992799;28;20037;-69
2022/11/27 05:07:22;;;;;;;6.15;2.83;;;;;;;15.93;60.08;100022.75;4992802;28;20023;-69
2022/11/27 05:09:47;;;;;;;4.55;3.05;;;;;;;15.92;60.10;100026.25;4992918;28;20093;-69
2022/11/27 05:12:13;;;;;;;4.47;3.05;;;;;;;15.93;60.02;100035.91;4995057;28;20506;-69
2022/11/27 05:14:38;;;;;;;5.03;3.22;;;;;;;15.93;60.20;100031.50;4995721;28;20049;-70
2022/11/27 05:17:04;;;;;;;4.60;3.00;;;;;;;15.92;60.08;100026.25;4996148;28;20057;-68
2022/11/27 05:19:30;;;;;;;5.03;3.00;;;;;;;15.93;59.88;100033.28;4996140;28;20034;-70
2022/11/27 05:21:56;;;;;;;4.65;2.70;;;;;;;15.94;60.14;100024.47;4996123;28;20487;-69
2022/11/27 05:24:24;;;;;;;4.45;2.90;;;;;;;15.98;60.00;100031.34;4995825;28;20147;-69
2022/11/27 05:26:50;;;;;;;4.28;2.45;;;;;;;15.95;59.94;100019.16;4994498;28;20387;-70
2022/11/27 05:29:16;;;;;;;5.35;3.00;;;;;;;15.95;60.29;100015.66;4994536;28;20026;-70
2022/11/27 05:31:42;;;;;;;4.18;2.60;;;;;;;15.95;60.09;100018.31;4995868;28;20030;-69
2022/11/27 05:34:09;;;;;;;4.93;2.63;;;;;;;15.96;60.23;100017.38;4994673;28;20113;-69
2022/11/27 05:36:35;;;;;;;5.85;3.20;;;;;;;15.95;60.23;100007.78;4995758;28;20054;-69
2022/11/27 05:39:01;;;;;;;5.30;2.63;;;;;;;15.94;59.92;100012.16;4995668;28;20368;-69
2022/11/27 05:41:27;;;;;;;4.63;2.70;;;;;;;15.96;59.99;100009.50;4995751;28;20026;-69
2022/11/27 05:43:52;;;;;;;3.63;2.28;;;;;;;15.96;60.42;100004.22;4995313;28;20035;-69
2022/11/27 05:46:20;;;;;;;4.55;2.47;;;;;;;15.93;60.27;99996.44;4995647;28;20076;-70
2022/11/27 05:48:46;;;;;;;4.60;2.85;;;;;;;15.94;60.02;99995.53;4995665;28;20092;-69
2022/11/27 05:51:11;;;;;;;3.75;2.63;;;;;;;15.96;60.14;99998.97;4995408;28;20121;-70
2022/11/27 05:53:37;;;;;;;3.88;2.35;;;;;;;15.93;60.29;100005.19;4995508;28;20077;-70
2022/11/27 05:56:08;;;;;;;4.40;2.40;;;;;;;15.91;59.79;99999.09;4995060;28;20170;-69
2022/11/27 05:58:35;;;;;;;4.57;1.95;;;;;;;15.94;60.08;99995.53;4995691;28;20085;-70
2022/11/27 06:01:01;;;;;;;4.65;2.40;;;;;;;15.93;60.03;99996.44;4995411;28;20544;-69
2022/11/27 06:03:27;;;;;;;4.38;2.42;;;;;;;15.93;59.80;99994.66;4995386;28;20056;-69
2022/11/27 06:05:54;;;;;;;4.57;2.40;;;;;;;15.90;59.78;99994.72;4995241;28;20033;-69
2022/11/27 06:08:20;;;;;;;4.40;2.63;;;;;;;15.92;60.11;99986.75;4995186;28;20490;-70
2022/11/27 06:10:46;;;;;;;5.40;2.60;;;;;;;15.89;59.96;99989.50;4994424;28;20104;-70
2022/11/27 06:13:12;;;;;;;4.15;2.15;;;;;;;15.94;60.06;99995.53;4995114;28;20030;-70
2022/11/27 06:15:38;;;;;;;4.85;2.30;;;;;;;15.92;59.92;99992.03;4994953;28;20016;-69
2022/11/27 06:18:04;;;;;;;4.13;2.50;;;;;;;15.93;60.08;99983.28;4995045;28;20015;-70
2022/11/27 06:20:30;;;;;;;4.18;2.00;;;;;;;15.90;59.96;99968.41;4995001;28;20430;-70
2022/11/27 06:22:56;;;;;;;4.82;2.40;;;;;;;15.87;59.84;99957.13;4993785;28;20030;-69
2022/11/27 06:25:22;;;;;;;4.50;2.15;;;;;;;15.88;59.81;99943.06;4993275;28;20069;-69
2022/11/27 06:27:48;;;;;;;4.97;1.90;;;;;;;15.87;59.55;99938.69;4994423;28;20427;-70
2022/11/27 06:30:13;;;;;;;4.10;2.35;;;;;;;15.90;59.44;99935.94;4994859;28;20030;-70
2022/11/27 06:32:39;;;;;;;6.28;2.90;;;;;;;15.87;59.42;99946.59;4994524;28;20383;-70
2022/11/27 06:35:05;;;;;;;4.63;2.30;;;;;;;15.84;59.43;99932.59;4994764;28;20038;-70
2022/11/27 06:37:30;;;;;;;4.45;2.13;;;;;;;15.86;59.50;99931.69;4994777;28;20454;-70
2022/11/27 06:39:55;;;;;;;4.07;2.05;;;;;;;15.84;59.49;99939.66;4994324;28;20077;-70
2022/11/27 06:42:21;;;;;;;4.00;2.38;;;;;;;15.82;59.18;99939.69;4993384;28;20049;-70
2022/11/27 06:44:47;;;;;;;5.05;2.10;;;;;;;15.80;59.45;99935.41;4994368;28;20489;-70
2022/11/27 06:47:12;;;;;;;3.65;2.05;;;;;;;15.78;59.24;99935.44;4994453;28;20418;-70
2022/11/27 06:49:37;;;;;;;6.22;2.25;;;;;;;15.80;59.60;99940.66;4994497;28;20118;-69
2022/11/27 06:52:03;;;;;;;4.20;1.83;;;;;;;15.82;59.38;99944.09;4994422;28;20032;-69
2022/11/27 06:54:29;;;;;;;3.95;2.30;;;;;;;15.78;59.28;99945.13;4993916;28;20022;-69
2022/11/27 06:56:54;;;;;;;3.78;1.90;;;;;;;15.80;59.70;99949.38;4994142;28;20082;-70
2022/11/27 06:59:20;;;;;;;4.30;2.10;;;;;;;15.81;59.52;99956.41;4994346;28;20034;-69
2022/11/27 07:01:45;;;;;;;3.38;1.85;;;;;;;15.81;59.60;99959.03;4994222;28;20037;-69
2022/11/27 07:04:12;;;;;;;3.97;2.00;;;;;;;15.83;59.80;99949.31;4994191;28;20034;-69
2022/11/27 07:06:39;;;;;;;4.45;2.17;;;;;;;15.86;59.70;99950.13;4994119;28;20043;-70
2022/11/27 07:09:06;;;;;;;3.70;1.67;;;;;;;15.79;59.86;99942.41;4993628;28;20114;-69
2022/11/27 07:11:32;;;;;;;3.83;2.20;;;;;;;15.82;59.64;99955.50;4994098;28;20072;-70
2022/11/27 07:14:00;;;;;;;4.00;1.98;;;;;;;15.84;59.52;99956.28;4993703;28;20034;-70
2022/11/27 07:16:29;;;;;;;3.60;2.10;;;;;;;15.83;59.78;99957.19;4993936;28;20102;-71
2022/11/27 07:18:58;;;;;;;4.70;2.42;;;;;;;15.85;59.52;99962.44;4993843;28;20018;-69
2022/11/27 07:21:24;;;;;;;4.45;1.95;;;;;;;15.84;59.43;99958.91;4993852;28;20018;-70
2022/11/27 07:23:55;;;;;;;3.78;1.90;;;;;;;15.83;59.43;99961.59;4993335;28;20046;-69
2022/11/27 07:26:22;;;;;;;3.72;1.65;;;;;;;15.81;59.38;99964.31;4993693;28;20057;-70
2022/11/27 07:28:48;;;;;;;6.90;2.22;;;;;;;15.83;59.70;99957.19;4993887;28;20427;-69
2022/11/27 07:31:18;;;;;;;3.67;1.90;;;;;;;15.82;59.33;99968.66;4992513;28;20124;-70
2022/11/27 07:33:43;;;;;;;3.95;1.83;;;;;;;15.79;59.71;99975.78;4993479;28;20046;-70
2022/11/27 07:36:13;;;;;;;4.20;1.98;;;;;;;15.83;59.45;99966.84;4993344;28;20026;-70
2022/11/27 07:38:39;;;;;;;3.72;1.80;;;;;;;15.83;59.58;99962.47;4993458;28;20400;-69
2022/11/27 07:41:06;;;;;;;3.63;1.73;;;;;;;15.80;59.66;99962.56;4993655;28;20023;-69
2022/11/27 07:43:32;;;;;;;3.10;1.52;;;;;;;15.80;59.47;99970.44;4993429;28;20042;-70
2022/11/27 07:46:01;;;;;;;3.63;1.77;;;;;;;15.80;59.16;99962.56;4993479;28;20499;-69
2022/11/27 07:48:27;;;;;;;4.03;1.80;;;;;;;15.81;59.40;99972.19;4993399;28;20018;-70
2022/11/27 07:50:52;;;;;;;3.78;1.55;;;;;;;15.83;59.51;99969.50;4993515;28;20033;-70
2022/11/27 07:53:17;;;;;;;3.20;1.65;;;;;;;15.82;59.54;99968.66;4993184;28;20030;-70
2022/11/27 07:55:43;;;;;;;3.53;1.70;;;;;;;15.81;59.53;99964.31;4993211;28;20023;-70
2022/11/27 07:58:08;;;;;;;3.60;1.80;;;;;;;15.80;59.55;99977.50;4993378;28;20094;-68
2022/11/27 08:00:34;;;;;;;3.95;1.80;;;;;;;15.79;59.42;99975.78;4993403;28;20097;-69
2022/11/27 08:03:00;;;;;;;5.00;1.80;;;;;;;15.81;59.18;99979.22;4993279;28;20105;-69
2022/11/27 08:05:26;;;;;;;3.28;1.65;;;;;;;15.80;59.47;99972.22;4993314;28;20019;-69
2022/11/27 08:07:51;;;;;;;3.28;1.90;;;;;;;15.80;59.18;99966.97;4992986;28;20033;-74
2022/11/27 08:10:16;;;;;;;3.40;1.60;;;;;;;15.81;59.10;99964.31;4993248;28;20109;-69
2022/11/27 08:12:42;;;;;;;4.53;1.80;;;;;;;15.80;59.25;99959.91;4991849;28;20101;-69
2022/11/27 08:15:09;;;;;;;3.28;1.63;;;;;;;15.84;59.21;99964.19;4993199;28;20169;-70
2022/11/27 08:17:34;;;;;;;3.72;1.75;;;;;;;15.81;59.32;99956.41;4991985;28;20395;-69
2022/11/27 08:19:59;;;;;;;3.30;1.48;;;;;;;15.82;59.35;99966.00;4993262;28;20029;-70
2022/11/27 08:22:25;;;;;;;3.30;1.70;;;;;;;15.83;59.28;99957.19;4992751;28;20430;-70
2022/11/27 08:24:51;;;;;;;4.00;1.95;;;;;;;15.81;59.18;99948.50;4992948;28;20049;-68
2022/11/27 08:27:17;;;;;;;8.75;1.92;;;;;;;15.84;59.31;99951.03;4993093;28;20023;-69
2022/11/27 08:29:42;;;;;;;5.63;1.70;;;;;;;15.80;59.41;99946.75;4993314;28;20049;-69
2022/11/27 08:32:08;;;;;;;4.75;2.58;;;;;;;15.84;59.27;99943.13;4993256;28;20030;-68
2022/11/27 08:34:34;;;;;;;4.53;1.95;;;;;;;15.81;59.22;99943.25;4992963;28;20042;-69
2022/11/27 08:36:59;;;;;;;4.45;1.98;;;;;;;15.77;58.97;99941.59;4992755;28;20057;-69
2022/11/27 08:39:25;;;;;;;5.10;2.13;;;;;;;15.79;59.42;99950.31;4993105;28;20105;-69
2022/11/27 08:41:52;;;;;;;3.47;1.70;;;;;;;15.82;59.27;99944.97;4993014;28;20105;-69
2022/11/27 08:44:18;;;;;;;3.58;1.65;;;;;;;15.83;59.20;99941.41;4992881;28;20038;-69
2022/11/27 08:46:43;;;;;;;3.38;1.63;;;;;;;15.83;59.22;99941.41;4994510;28;20376;-69
2022/11/27 08:49:09;;;;;;;4.30;1.60;;;;;;;15.83;59.14;99946.69;4995381;28;20026;-70
2022/11/27 08:51:35;;;;;;;3.70;1.70;;;;;;;15.84;59.42;99952.81;4996312;28;20487;-70
2022/11/27 08:54:00;;;;;;;2.70;1.38;;;;;;;15.84;59.42;99956.28;4994882;28;20042;-70
2022/11/27 08:56:25;;;;;;;3.88;1.60;;;;;;;15.86;59.28;99961.50;4996395;28;20439;-70
2022/11/27 08:58:51;;;;;;;3.63;1.60;;;;;;;15.86;59.62;99960.63;4996498;28;20029;-69
2022/11/27 09:01:26;;;;;;;3.60;1.77;;;;;;;15.87;59.42;99959.75;4996377;28;20049;-71
2022/11/27 09:03:52;;;;;;;4.47;1.90;;;;;;;15.88;59.49;99953.56;4996116;28;20125;-70
2022/11/27 09:06:21;;;;;;;3.42;1.50;;;;;;;15.88;59.16;99953.56;4995727;28;20135;-69
2022/11/27 09:08:47;;;;;;;3.63;1.75;;;;;;;15.90;59.15;99946.47;4995399;28;20033;-69
2022/11/27 09:11:14;;;;;;;3.55;1.60;;;;;;;15.92;59.59;99944.66;4996428;28;20030;-70
2022/11/27 09:13:44;;;;;;;3.83;1.52;;;;;;;15.91;59.53;99942.94;4996084;28;20072;-70
2022/11/27 09:16:13;;;;;;;3.10;1.60;;;;;;;15.90;59.33;99943.84;4997285;28;20085;-70
2022/11/27 09:18:39;;;;;;;3.55;1.80;;;;;;;15.90;59.44;99939.47;4996660;28;20080;-69
2022/11/27 09:21:07;;;;;;;3.83;2.00;;;;;;;15.91;59.42;99948.19;4995486;28;20049;-70
2022/11/27 09:23:33;;;;;;;2.97;1.42;;;;;;;15.94;59.29;99935.00;4992459;28;20050;-69
2022/11/27 09:26:04;;;;;;;5.28;2.13;;;;;;;15.94;59.30;99937.63;4996247;28;20121;-69
2022/11/27 09:28:31;;;;;;;5.03;1.92;;;;;;;15.95;59.47;99939.34;4996001;28;20022;-70
2022/11/27 09:30:59;;;;;;;2.75;1.63;;;;;;;15.94;59.34;99948.16;4995552;28;20061;-68
2022/11/27 09:33:26;;;;;;;3.53;1.80;;;;;;;15.98;59.60;99939.22;4994683;28;20034;-69
2022/11/27 09:35:52;;;;;;;3.35;1.55;;;;;;;15.96;59.31;99936.66;4994928;28;20053;-69
2022/11/27 09:38:17;;;;;;;4.22;1.70;;;;;;;15.94;59.50;99930.56;4991627;28;20022;-70
2022/11/27 09:40:48;;;;;;;5.30;1.83;;;;;;;15.93;59.64;99938.53;4992586;28;20034;-70
2022/11/27 09:43:15;;;;;;;4.05;1.73;;;;;;;15.99;59.59;99940.97;4994336;28;20030;-69
2022/11/27 09:45:47;;;;;;;4.78;2.38;;;;;;;16.01;59.91;99931.25;4993833;28;20487;-71
2022/11/27 09:48:27;;;;;;;5.60;2.42;;;;;;;16.04;60.15;99933.75;4991574;28;20038;-70
2022/11/27 09:50:55;;;;;;;6.78;2.38;;;;;;;16.04;60.34;99931.13;4992362;28;21512;-71
2022/11/27 09:53:45;;;;;;;5.07;2.63;;;;;;;16.08;60.05;99930.13;4990794;28;20034;-71
2022/11/27 09:56:13;;;;;;;8.27;2.67;;;;;;;16.10;60.21;99928.31;4991721;28;20026;-70
2022/11/27 09:58:45;;;;;;;5.45;2.70;;;;;;;16.13;60.03;99931.75;4990290;28;20030;-70
2022/11/27 10:01:24;;;;;;;6.60;2.30;;;;;;;16.14;60.51;99921.19;4991311;28;20110;-70
2022/11/27 10:03:50;;;;;;;7.72;3.53;;;;;;;16.15;62.21;99920.25;4990373;28;20026;-69
2022/11/27 10:06:22;;;;;;;11.13;3.90;;;;;;;16.22;63.12;99936.69;4993556;28;20501;-70
2022/11/27 10:09:21;;;;;;;11.45;3.58;;;;;;;16.23;63.36;99941.06;4980911;28;20126;-70
2022/11/27 10:11:58;;;;;;;10.65;3.83;;;;;;;16.26;62.58;99933.06;4981144;28;20117;-70
2022/11/27 10:14:24;;;;;;;11.55;3.35;;;;;;;16.31;63.84;99930.25;4975866;28;20023;-70
2022/11/27 10:16:52;;;;;;;9.73;3.30;;;;;;;16.32;63.61;99930.22;4976725;28;20037;-70
2022/11/27 10:19:17;;;;;;;8.35;3.50;;;;;;;16.36;63.90;99918.66;4976213;28;20041;-70
2022/11/27 10:21:53;;;;;;;8.90;3.08;;;;;;;16.37;63.88;99912.47;4991299;28;20026;-69
2022/11/27 10:24:27;;;;;;;8.35;3.17;;;;;;;16.38;63.51;99908.09;4978550;28;20058;-69
2022/11/27 10:26:56;;;;;;;8.50;3.38;;;;;;;16.41;63.67;99907.13;4986078;28;20117;-69
2022/11/27 10:29:32;;;;;;;7.95;3.50;;;;;;;16.44;63.58;99901.72;4976397;28;20030;-69
2022/11/27 10:32:03;;;;;;;7.72;3.05;;;;;;;16.48;62.74;99906.00;4978642;28;20022;-68
2022/11/27 10:34:37;;;;;;;15.65;3.78;;;;;;;16.49;62.65;99902.44;4979368;28;20399;-70
2022/11/27 10:37:29;;;;;;;9.98;3.60;;;;;;;16.53;62.46;99898.78;4977378;28;20407;-69
2022/11/27 10:40:05;;;;;;;6.65;3.20;;;;;;;16.55;62.11;99911.91;4984289;28;20023;-70
2022/11/27 10:42:51;;;;;;;11.20;3.58;;;;;;;16.56;61.57;99909.19;4984505;28;20023;-68
2022/11/27 10:45:39;;;;;;;11.30;3.45;;;;;;;16.59;61.40;99895.06;4990262;28;20088;-68
2022/11/27 10:48:05;;;;;;;5.88;2.80;;;;;;;16.57;61.29;99881.94;4987603;28;20049;-70
2022/11/27 10:50:31;;;;;;;8.80;3.75;;;;;;;16.55;61.15;99875.88;4986752;28;20502;-69
2022/11/27 10:53:01;;;;;;;9.02;3.47;;;;;;;16.57;60.76;99873.19;4990830;28;20030;-69
2022/11/27 10:55:59;;;;;;;8.90;3.50;;;;;;;16.58;61.13;99870.50;4994756;28;20121;-70
2022/11/27 10:58:46;;;;;;;7.97;3.30;;;;;;;16.59;60.75;99866.94;4990465;28;20037;-70
2022/11/27 11:01:14;;;;;;;8.50;2.78;;;;;;;16.61;60.60;99859.84;4982528;28;20054;-70
2022/11/27 11:03:39;;;;;;;7.93;3.10;;;;;;;16.62;60.79;99858.09;4981064;28;20085;-69
2022/11/27 11:06:16;;;;;;;7.50;2.75;;;;;;;16.60;60.87;99858.13;4991229;28;20450;-68
2022/11/27 11:08:41;;;;;;;6.45;3.38;;;;;;;16.60;60.72;99836.19;4984905;28;20033;-71
2022/11/27 11:11:08;;;;;;;8.40;3.38;;;;;;;16.61;60.65;99840.56;4989681;28;20034;-69
2022/11/27 11:13:39;;;;;;;8.30;3.72;;;;;;;16.64;60.54;99843.94;4987322;28;20027;-68
2022/11/27 11:16:14;;;;;;;6.40;3.10;;;;;;;16.65;60.60;99839.50;4990923;28;20058;-68
2022/11/27 11:18:41;;;;;;;7.10;2.95;;;;;;;16.66;60.71;99833.31;4977431;28;20018;-68
2022/11/27 11:21:34;;;;;;;11.48;3.47;;;;;;;16.68;60.69;99834.13;4977678;28;20034;-68
2022/11/27 11:24:14;;;;;;;7.95;3.17;;;;;;;16.71;60.56;99825.25;4981583;28;20042;-70
2022/11/27 11:26:45;;;;;;;9.43;3.92;;;;;;;16.71;60.50;99818.19;4988474;28;20068;-68
2022/11/27 11:29:29;;;;;;;9.77;2.88;;;;;;;16.72;60.57;99819.06;4987769;28;20072;-69
2022/11/27 11:31:56;;;;;;;9.40;3.20;;;;;;;16.79;60.74;99820.56;4987044;28;20037;-75
2022/11/27 11:34:26;;;;;;;13.95;3.63;;;;;;;16.87;60.46;99826.41;4987021;28;20030;-73
2022/11/27 11:37:06;;;;;;;20.02;4.50;;;;;;;16.90;60.80;99823.66;4976499;28;20046;-71
2022/11/27 11:39:43;;;;;;;11.93;3.58;;;;;;;16.89;60.48;99805.25;4992600;28;20030;-71